createdAt,value
2017-08-07T00:01:20.717Z,17.65
2017-08-07T00:03:50.129Z,17.62
2017-08-07T00:06:19.502Z,17.55
2017-08-07T00:08:49.088Z,17.52
2017-08-07T00:11:18.267Z,17.48
2017-08-07T00:13:47.970Z,17.53
2017-08-07T00:16:17.352Z,17.51
2017-08-07T00:18:47.096Z,17.45
2017-08-07T00:21:17.036Z,17.43
2017-08-07T00:23:46.395Z,17.45
2017-08-07T00:26:16.148Z,17.48
2017-08-07T00:28:45.408Z,17.43
2017-08-07T00:31:14.759Z,17.43
2017-08-07T00:33:44.204Z,17.45
2017-08-07T00:36:13.372Z,17.42
2017-08-07T00:38:43.218Z,17.38
2017-08-07T00:41:12.625Z,17.37
2017-08-07T00:43:41.750Z,17.30
2017-08-07T00:46:11.226Z,17.29
2017-08-07T00:48:40.332Z,17.29
2017-08-07T00:51:09.670Z,17.22
2017-08-07T00:53:38.815Z,17.21
2017-08-07T00:56:08.837Z,17.23
2017-08-07T00:58:37.965Z,17.21
2017-08-07T01:01:07.197Z,17.21
2017-08-07T01:03:36.703Z,17.19
2017-08-07T01:06:05.997Z,17.03
2017-08-07T01:08:35.164Z,17.04
2017-08-07T01:11:04.528Z,16.93
2017-08-07T01:13:33.799Z,17.00
2017-08-07T01:16:03.991Z,17.04
2017-08-07T01:18:33.462Z,17.06
2017-08-07T01:21:03.049Z,17.02
2017-08-07T01:23:32.821Z,17.01
2017-08-07T01:26:02.217Z,17.04
2017-08-07T01:28:31.759Z,17.05
2017-08-07T01:31:01.242Z,17.00
2017-08-07T01:33:30.511Z,16.98
2017-08-07T01:36:00.317Z,16.98
2017-08-07T01:38:29.566Z,16.94
2017-08-07T01:40:58.919Z,16.93
2017-08-07T01:43:28.449Z,16.93
2017-08-07T01:45:57.591Z,16.91
2017-08-07T01:48:27.201Z,16.88
2017-08-07T01:50:56.471Z,16.84
2017-08-07T01:53:26.182Z,16.81
2017-08-07T01:55:55.453Z,16.77
2017-08-07T01:58:24.696Z,16.78
2017-08-07T02:00:54.173Z,16.76
2017-08-07T02:03:23.613Z,16.75
2017-08-07T02:05:52.988Z,16.72
2017-08-07T02:08:21.865Z,16.66
2017-08-07T02:10:51.405Z,16.65
2017-08-07T02:13:21.787Z,16.65
2017-08-07T02:15:51.323Z,16.61
2017-08-07T02:18:20.625Z,16.54
2017-08-07T02:20:49.921Z,16.57
2017-08-07T02:23:19.726Z,16.47
2017-08-07T02:25:48.949Z,16.45
2017-08-07T02:28:18.485Z,16.39
2017-08-07T02:30:47.650Z,16.35
2017-08-07T02:33:16.713Z,16.23
2017-08-07T02:35:46.056Z,16.21
2017-08-07T02:38:15.330Z,16.21
2017-08-07T02:40:44.856Z,16.23
2017-08-07T02:43:14.057Z,16.26
2017-08-07T02:45:43.534Z,16.26
2017-08-07T02:48:12.669Z,16.23
2017-08-07T02:50:41.938Z,16.22
2017-08-07T02:53:11.576Z,16.20
2017-08-07T02:55:40.942Z,16.19
2017-08-07T02:58:10.690Z,16.15
2017-08-07T03:00:39.803Z,16.13
2017-08-07T03:03:09.255Z,16.07
2017-08-07T03:05:38.726Z,16.09
2017-08-07T03:08:08.049Z,16.06
2017-08-07T03:10:37.529Z,15.99
2017-08-07T03:13:06.773Z,15.94
2017-08-07T03:15:36.027Z,15.93
2017-08-07T03:18:05.549Z,15.87
2017-08-07T03:20:34.717Z,15.87
2017-08-07T03:23:04.620Z,15.91
2017-08-07T03:25:33.977Z,15.86
2017-08-07T03:28:03.485Z,15.84
2017-08-07T03:30:33.156Z,15.86
2017-08-07T03:33:02.472Z,15.80
2017-08-07T03:35:31.988Z,15.73
2017-08-07T03:38:01.169Z,15.72
2017-08-07T03:40:30.337Z,15.68
2017-08-07T03:42:59.872Z,15.61
2017-08-07T03:45:29.425Z,15.50
2017-08-07T03:47:59.128Z,15.59
2017-08-07T03:50:28.451Z,15.56
2017-08-07T03:52:57.847Z,15.54
2017-08-07T03:55:27.380Z,15.56
2017-08-07T03:57:57.522Z,15.52
2017-08-07T04:00:26.990Z,15.51
2017-08-07T04:02:57.467Z,15.50
2017-08-07T04:05:26.499Z,15.53
2017-08-07T04:07:55.967Z,15.52
2017-08-07T04:10:25.280Z,15.49
2017-08-07T04:12:54.570Z,15.51
2017-08-07T04:15:24.873Z,15.53
2017-08-07T04:17:54.172Z,15.53
2017-08-07T04:20:21.572Z,15.53
2017-08-07T04:22:49.067Z,15.51
2017-08-07T04:25:16.498Z,15.52
2017-08-07T04:27:44.204Z,15.53
2017-08-07T04:30:11.746Z,15.59
2017-08-07T04:32:39.321Z,15.61
2017-08-07T04:35:06.811Z,15.60
2017-08-07T04:37:34.234Z,15.64
2017-08-07T04:40:01.711Z,15.67
2017-08-07T04:42:29.327Z,15.67
2017-08-07T04:44:56.771Z,15.71
2017-08-07T04:47:24.250Z,15.70
2017-08-07T04:49:51.675Z,15.70
2017-08-07T04:52:19.322Z,15.72
2017-08-07T04:54:46.766Z,15.77
2017-08-07T04:57:14.386Z,15.78
2017-08-07T04:59:42.082Z,15.83
2017-08-07T05:02:09.503Z,15.84
2017-08-07T05:04:36.989Z,15.93
2017-08-07T05:07:04.447Z,15.98
2017-08-07T05:09:31.928Z,16.01
2017-08-07T05:11:59.513Z,15.78
2017-08-07T05:14:26.935Z,15.93
2017-08-07T05:16:54.412Z,16.02
2017-08-07T05:19:21.834Z,16.14
2017-08-07T05:21:49.416Z,16.23
2017-08-07T05:24:16.831Z,16.28
2017-08-07T05:26:44.301Z,16.36
2017-08-07T05:29:11.731Z,16.42
2017-08-07T05:31:39.760Z,16.48
2017-08-07T05:34:07.191Z,16.50
2017-08-07T05:36:34.611Z,16.58
2017-08-07T05:39:02.245Z,16.50
2017-08-07T05:41:29.763Z,16.45
2017-08-07T05:43:57.194Z,16.46
2017-08-07T05:46:24.610Z,16.54
2017-08-07T05:48:52.058Z,16.68
2017-08-07T05:51:19.529Z,16.91
2017-08-07T05:53:47.847Z,17.11
2017-08-07T05:56:15.285Z,17.30
2017-08-07T05:58:42.715Z,17.36
2017-08-07T06:01:10.151Z,17.55
2017-08-07T06:03:37.560Z,17.96
2017-08-07T06:06:05.487Z,19.70
2017-08-07T06:08:33.098Z,21.91
2017-08-07T06:11:00.564Z,23.42
2017-08-07T06:13:27.971Z,24.99
2017-08-07T06:15:55.458Z,26.07
2017-08-07T06:18:22.928Z,26.90
2017-08-07T06:20:50.601Z,27.65
2017-08-07T06:23:18.104Z,28.09
2017-08-07T06:25:45.511Z,28.64
2017-08-07T06:28:12.927Z,28.72
2017-08-07T06:30:40.400Z,28.95
2017-08-07T06:33:07.975Z,26.13
2017-08-07T06:35:36.208Z,23.50
2017-08-07T06:38:03.636Z,22.07
2017-08-07T06:40:31.096Z,21.81
2017-08-07T06:42:58.892Z,21.55
2017-08-07T06:45:26.339Z,21.15
2017-08-07T06:47:53.839Z,21.10
2017-08-07T06:50:21.764Z,21.09
2017-08-07T06:52:49.395Z,21.07
2017-08-07T06:55:16.831Z,21.08
2017-08-07T06:57:44.284Z,21.07
2017-08-07T07:00:11.710Z,20.98
2017-08-07T07:02:39.150Z,21.02
2017-08-07T07:05:06.617Z,21.04
2017-08-07T07:07:34.160Z,21.15
2017-08-07T07:10:01.618Z,21.27
2017-08-07T07:12:29.027Z,21.26
2017-08-07T07:14:56.488Z,21.21
2017-08-07T07:17:23.930Z,21.22
2017-08-07T07:19:51.348Z,21.20
2017-08-07T07:22:18.805Z,21.15
2017-08-07T07:24:46.361Z,21.23
2017-08-07T07:27:13.814Z,21.25
2017-08-07T07:29:41.273Z,21.44
2017-08-07T07:32:08.699Z,21.46
2017-08-07T07:34:36.485Z,21.55
2017-08-07T07:37:03.897Z,21.56
2017-08-07T07:39:31.472Z,21.72
2017-08-07T07:41:58.961Z,21.70
2017-08-07T07:44:26.402Z,21.86
2017-08-07T07:46:53.828Z,21.94
2017-08-07T07:49:21.246Z,22.16
2017-08-07T07:51:48.705Z,22.35
2017-08-07T07:54:16.194Z,22.46
2017-08-07T07:56:43.647Z,22.53
2017-08-07T07:59:11.061Z,22.57
2017-08-07T08:01:38.520Z,22.66
2017-08-07T08:04:05.953Z,22.72
2017-08-07T08:06:33.405Z,22.63
2017-08-07T08:09:00.834Z,22.84
2017-08-07T08:11:28.331Z,22.97
2017-08-07T08:13:55.766Z,23.12
2017-08-07T08:16:23.177Z,23.18
2017-08-07T08:18:50.786Z,23.29
2017-08-07T08:21:18.255Z,23.41
2017-08-07T08:23:45.706Z,23.49
2017-08-07T08:26:13.337Z,23.54
2017-08-07T08:28:40.847Z,23.43
2017-08-07T08:31:08.349Z,23.27
2017-08-07T08:33:35.846Z,23.49
2017-08-07T08:36:03.267Z,23.66
2017-08-07T08:38:30.717Z,23.83
2017-08-07T08:40:58.125Z,24.03
2017-08-07T08:43:25.580Z,24.17
2017-08-07T08:45:53.296Z,24.27
2017-08-07T08:48:20.728Z,24.28
2017-08-07T08:50:48.219Z,24.23
2017-08-07T08:53:15.631Z,24.42
2017-08-07T08:55:44.185Z,24.51
2017-08-07T08:58:11.608Z,24.72
2017-08-07T09:00:39.067Z,24.76
2017-08-07T09:03:06.521Z,24.64
2017-08-07T09:05:34.014Z,24.57
2017-08-07T09:08:03.940Z,24.57
2017-08-07T09:10:31.363Z,24.58
2017-08-07T09:12:58.925Z,24.70
2017-08-07T09:15:27.424Z,24.44
2017-08-07T09:17:55.047Z,24.56
2017-08-07T09:20:22.475Z,24.50
2017-08-07T09:22:49.967Z,24.72
2017-08-07T09:25:18.557Z,24.76
2017-08-07T09:27:46.212Z,24.65
2017-08-07T09:30:13.661Z,24.69
2017-08-07T09:32:41.119Z,25.05
2017-08-07T09:35:08.527Z,25.04
2017-08-07T09:37:35.974Z,24.91
2017-08-07T09:40:03.404Z,25.10
2017-08-07T09:42:30.910Z,25.09
2017-08-07T09:44:58.406Z,24.92
2017-08-07T09:47:25.878Z,24.79
2017-08-07T09:49:53.423Z,25.05
2017-08-07T09:52:21.158Z,24.92
2017-08-07T09:54:49.463Z,24.96
2017-08-07T09:57:16.927Z,25.07
2017-08-07T09:59:44.379Z,25.04
2017-08-07T10:02:11.927Z,25.02
2017-08-07T10:04:39.365Z,25.35
2017-08-07T10:07:06.775Z,25.56
2017-08-07T10:09:34.228Z,25.90
2017-08-07T10:12:01.742Z,25.64
2017-08-07T10:14:29.222Z,25.54
2017-08-07T10:16:56.705Z,25.79
2017-08-07T10:19:24.128Z,26.04
2017-08-07T10:21:51.584Z,25.87
2017-08-07T10:24:19.216Z,26.07
2017-08-07T10:26:46.635Z,26.29
2017-08-07T10:29:14.264Z,26.02
2017-08-07T10:31:41.716Z,26.01
2017-08-07T10:34:09.156Z,26.13
2017-08-07T10:36:36.629Z,26.19
2017-08-07T10:39:04.058Z,26.24
2017-08-07T10:41:31.518Z,26.48
2017-08-07T10:43:58.938Z,26.46
2017-08-07T10:46:26.424Z,26.64
2017-08-07T10:48:53.890Z,26.85
2017-08-07T10:51:21.278Z,26.81
2017-08-07T10:53:48.702Z,26.52
2017-08-07T10:56:16.110Z,26.36
2017-08-07T10:58:43.509Z,26.36
2017-08-07T11:01:10.967Z,26.56
2017-08-07T11:03:38.388Z,26.78
2017-08-07T11:06:05.876Z,26.88
2017-08-07T11:08:33.362Z,26.88
2017-08-07T11:11:00.980Z,27.00
2017-08-07T11:13:28.400Z,26.94
2017-08-07T11:15:55.836Z,27.03
2017-08-07T11:18:23.291Z,27.31
2017-08-07T11:20:50.891Z,27.31
2017-08-07T11:23:18.328Z,27.36
2017-08-07T11:25:45.775Z,27.20
2017-08-07T11:28:13.244Z,27.21
2017-08-07T11:30:40.700Z,27.25
2017-08-07T11:33:08.144Z,27.38
2017-08-07T11:35:36.497Z,27.21
2017-08-07T11:38:03.980Z,27.22
2017-08-07T11:40:31.418Z,27.35
2017-08-07T11:42:58.927Z,27.08
2017-08-07T11:45:26.490Z,27.23
2017-08-07T11:47:54.194Z,27.15
2017-08-07T11:50:21.642Z,27.31
2017-08-07T11:52:49.309Z,27.23
2017-08-07T11:55:16.764Z,27.15
2017-08-07T11:57:44.226Z,27.23
2017-08-07T12:00:11.640Z,27.46
2017-08-07T12:02:39.080Z,27.51
2017-08-07T12:05:06.527Z,27.71
2017-08-07T12:07:34.041Z,27.66
2017-08-07T12:10:01.453Z,27.42
2017-08-07T12:12:28.887Z,27.52
2017-08-07T12:14:56.347Z,27.65
2017-08-07T12:17:23.791Z,27.88
2017-08-07T12:19:51.466Z,28.09
2017-08-07T12:22:18.939Z,28.19
2017-08-07T12:24:46.482Z,27.76
2017-08-07T12:27:13.939Z,27.49
2017-08-07T12:29:41.389Z,27.34
2017-08-07T12:32:08.876Z,27.57
2017-08-07T12:34:36.303Z,27.75
2017-08-07T12:37:03.763Z,28.01
2017-08-07T12:39:31.191Z,28.48
2017-08-07T12:41:58.643Z,29.30
2017-08-07T12:44:26.107Z,29.76
2017-08-07T12:46:53.515Z,31.06
2017-08-07T12:49:21.021Z,32.32
2017-08-07T12:51:48.420Z,32.52
2017-08-07T12:54:15.976Z,33.35
2017-08-07T12:56:43.482Z,33.87
2017-08-07T12:59:10.890Z,34.92
2017-08-07T13:01:38.386Z,34.78
2017-08-07T13:04:05.898Z,35.01
2017-08-07T13:06:33.349Z,34.82
2017-08-07T13:09:00.800Z,35.29
2017-08-07T13:11:28.240Z,34.48
2017-08-07T13:13:55.716Z,34.74
2017-08-07T13:16:23.299Z,35.08
2017-08-07T13:18:50.800Z,34.11
2017-08-07T13:21:18.364Z,33.69
2017-08-07T13:23:45.822Z,34.69
2017-08-07T13:26:13.332Z,35.19
2017-08-07T13:28:40.879Z,36.22
2017-08-07T13:31:08.308Z,34.95
2017-08-07T13:33:36.473Z,34.18
2017-08-07T13:36:03.973Z,33.33
2017-08-07T13:38:32.298Z,32.99
2017-08-07T13:40:59.751Z,32.08
2017-08-07T13:43:27.360Z,32.83
2017-08-07T13:45:54.802Z,33.53
2017-08-07T13:48:22.264Z,34.17
2017-08-07T13:50:49.687Z,34.19
2017-08-07T13:53:17.158Z,34.03
2017-08-07T13:55:44.574Z,34.04
2017-08-07T13:58:12.032Z,34.39
2017-08-07T14:00:39.528Z,32.97
2017-08-07T14:03:06.938Z,33.06
2017-08-07T14:05:34.395Z,33.56
2017-08-07T14:08:01.808Z,33.75
2017-08-07T14:10:29.252Z,33.34
2017-08-07T14:12:56.697Z,33.11
2017-08-07T14:15:24.147Z,31.76
2017-08-07T14:17:51.613Z,32.18
2017-08-07T14:20:19.177Z,32.50
2017-08-07T14:22:46.638Z,33.86
2017-08-07T14:25:14.123Z,32.78
2017-08-07T14:27:41.535Z,32.29
2017-08-07T14:30:08.939Z,33.50
2017-08-07T14:32:36.429Z,32.86
2017-08-07T14:35:03.862Z,32.73
2017-08-07T14:37:31.510Z,32.09
2017-08-07T14:39:59.095Z,32.54
2017-08-07T14:42:26.541Z,32.62
2017-08-07T14:44:55.911Z,31.49
2017-08-07T14:47:24.987Z,31.61
2017-08-07T14:49:54.215Z,31.97
2017-08-07T14:52:23.155Z,32.86
2017-08-07T14:54:52.541Z,33.12
2017-08-07T14:57:21.940Z,32.49
2017-08-07T14:59:51.510Z,31.01
2017-08-07T15:02:21.268Z,30.70
2017-08-07T15:04:50.088Z,30.78
2017-08-07T15:07:17.481Z,30.76
2017-08-07T15:09:44.934Z,30.60
2017-08-07T15:12:12.348Z,30.30
2017-08-07T15:14:39.784Z,30.32
2017-08-07T15:17:07.206Z,29.92
2017-08-07T15:19:34.610Z,29.90
2017-08-07T15:22:02.094Z,30.09
2017-08-07T15:24:29.572Z,30.66
2017-08-07T15:26:57.023Z,31.15
2017-08-07T15:29:24.441Z,30.05
2017-08-07T15:31:51.883Z,29.75
2017-08-07T15:34:19.329Z,29.39
2017-08-07T15:36:46.731Z,29.69
2017-08-07T15:39:14.195Z,29.79
2017-08-07T15:41:43.273Z,29.72
2017-08-07T15:44:12.481Z,29.60
2017-08-07T15:46:41.555Z,29.40
2017-08-07T15:49:11.560Z,29.05
2017-08-07T15:51:41.024Z,28.64
2017-08-07T15:54:10.508Z,28.73
2017-08-07T15:56:40.024Z,28.64
2017-08-07T15:59:09.906Z,28.37
2017-08-07T16:01:40.142Z,28.15
2017-08-07T16:04:10.268Z,27.95
2017-08-07T16:06:39.412Z,28.02
2017-08-07T16:09:08.907Z,28.05
2017-08-07T16:11:38.065Z,27.96
2017-08-07T16:14:07.511Z,27.79
2017-08-07T16:16:36.872Z,27.56
2017-08-07T16:19:07.259Z,27.31
2017-08-07T16:21:37.363Z,27.50
2017-08-07T16:24:06.592Z,27.63
2017-08-07T16:26:36.256Z,27.49
2017-08-07T16:29:06.792Z,27.39
2017-08-07T16:31:35.942Z,27.63
2017-08-07T16:34:05.523Z,27.29
2017-08-07T16:36:35.289Z,27.35
2017-08-07T16:39:04.455Z,27.29
2017-08-07T16:41:33.618Z,27.19
2017-08-07T16:44:03.130Z,26.98
2017-08-07T16:46:32.333Z,26.84
2017-08-07T16:49:01.965Z,26.93
2017-08-07T16:51:31.095Z,27.04
2017-08-07T16:54:00.650Z,26.77
2017-08-07T16:56:30.044Z,26.71
2017-08-07T16:58:59.328Z,26.55
2017-08-07T17:01:28.746Z,26.45
2017-08-07T17:03:58.517Z,26.43
2017-08-07T17:06:27.620Z,26.39
2017-08-07T17:08:57.341Z,26.35
2017-08-07T17:11:26.871Z,26.23
2017-08-07T17:13:56.192Z,26.19
2017-08-07T17:19:06.230Z,26.22
2017-08-07T17:21:36.304Z,26.20
2017-08-07T17:24:05.890Z,26.17
2017-08-07T17:29:22.294Z,26.13
2017-08-07T17:31:58.782Z,26.14
2017-08-07T17:34:29.237Z,26.07
2017-08-07T17:36:58.494Z,26.04
2017-08-07T17:39:28.440Z,25.95
2017-08-07T17:41:58.352Z,26.01
2017-08-07T17:44:28.215Z,26.01
2017-08-07T17:46:57.784Z,25.94
2017-08-07T17:49:30.769Z,25.92
2017-08-07T17:52:01.352Z,25.86
2017-08-07T17:54:31.511Z,25.86
2017-08-07T17:57:00.770Z,25.91
2017-08-07T17:59:31.317Z,25.82
2017-08-07T18:02:00.935Z,25.73
2017-08-07T18:04:30.694Z,25.64
2017-08-07T18:07:00.181Z,25.62
2017-08-07T18:09:29.317Z,25.54
2017-08-07T20:19:30.808Z,23.15
2017-08-07T20:21:58.862Z,23.10
2017-08-07T20:24:28.467Z,23.08
2017-08-07T20:26:57.399Z,23.09
2017-08-07T20:29:24.837Z,23.09
2017-08-07T20:31:54.015Z,23.01
2017-08-07T20:34:23.258Z,22.93
2017-08-07T20:36:52.412Z,22.87
2017-08-07T20:39:19.986Z,22.82
2017-08-07T20:41:47.463Z,22.81
2017-08-07T20:44:14.937Z,22.85
2017-08-07T20:46:42.430Z,22.83
2017-08-07T20:49:09.890Z,22.80
2017-08-07T20:51:37.324Z,22.81
2017-08-07T20:54:04.780Z,22.76
2017-08-07T20:56:32.253Z,22.74
2017-08-07T20:58:59.679Z,22.75
2017-08-07T21:01:27.098Z,22.74
2017-08-07T21:03:54.549Z,22.71
2017-08-07T21:06:22.080Z,22.70
2017-08-07T21:08:49.544Z,22.68
2017-08-07T21:11:16.975Z,22.64
2017-08-07T21:13:44.424Z,22.63
2017-08-07T21:16:11.886Z,22.63
2017-08-07T21:18:39.315Z,22.59
2017-08-07T21:21:06.726Z,22.47
2017-08-07T21:23:34.359Z,22.33
2017-08-07T21:26:01.783Z,22.27
2017-08-07T21:28:29.214Z,22.20
2017-08-07T21:30:56.671Z,22.21
2017-08-07T21:33:24.134Z,22.20
2017-08-07T21:35:51.634Z,22.11
2017-08-07T21:38:19.243Z,22.13
2017-08-07T21:40:46.673Z,22.15
2017-08-07T21:43:14.127Z,22.13
2017-08-07T21:45:41.543Z,22.12
2017-08-07T21:48:09.015Z,22.10
2017-08-07T21:50:36.410Z,22.10
2017-08-07T21:53:03.865Z,22.07
2017-08-07T21:55:31.304Z,22.08
2017-08-07T21:57:58.751Z,22.12
2017-08-07T22:00:26.180Z,22.11
2017-08-07T22:02:53.623Z,21.97
2017-08-07T22:05:22.791Z,21.93
2017-08-07T22:07:50.280Z,21.91
2017-08-07T22:10:17.697Z,21.85
2017-08-07T22:12:45.158Z,21.86
2017-08-07T22:15:12.614Z,21.82
2017-08-07T22:17:40.026Z,21.79
2017-08-07T22:20:07.457Z,21.73
2017-08-07T22:22:34.988Z,21.70
2017-08-07T22:25:02.504Z,21.61
2017-08-07T22:27:29.960Z,21.59
2017-08-07T22:29:57.385Z,21.50
2017-08-07T22:32:24.791Z,21.50
2017-08-07T22:34:52.242Z,21.50
2017-08-07T22:37:19.656Z,21.26
2017-08-07T22:39:47.087Z,21.48
2017-08-07T22:42:14.524Z,21.40
2017-08-07T22:44:41.930Z,21.40
2017-08-07T22:47:09.400Z,21.40
2017-08-07T22:49:36.939Z,21.32
2017-08-07T22:52:04.386Z,21.24
2017-08-07T22:54:31.822Z,21.24
2017-08-07T22:56:59.253Z,21.17
2017-08-07T22:59:26.763Z,21.11
2017-08-07T23:01:54.291Z,21.14
2017-08-07T23:04:21.960Z,21.03
2017-08-07T23:06:49.381Z,21.05
2017-08-07T23:09:16.872Z,21.08
2017-08-07T23:11:44.299Z,21.06
2017-08-07T23:14:11.709Z,21.01
2017-08-07T23:16:39.148Z,20.96
2017-08-07T23:19:06.576Z,20.90
2017-08-07T23:21:34.090Z,20.88
2017-08-07T23:24:01.587Z,20.81
2017-08-07T23:26:29.040Z,20.82
2017-08-07T23:28:56.534Z,20.79
2017-08-07T23:31:23.944Z,20.72
2017-08-07T23:33:51.392Z,20.70
2017-08-07T23:36:18.878Z,20.68
2017-08-07T23:38:46.349Z,20.66
2017-08-07T23:41:13.781Z,20.60
2017-08-07T23:43:41.238Z,20.62
2017-08-07T23:46:08.650Z,20.58
2017-08-07T23:48:36.103Z,20.58
2017-08-07T23:51:03.536Z,20.49
2017-08-07T23:53:30.962Z,20.45
2017-08-07T23:55:58.382Z,20.49
2017-08-07T23:58:25.911Z,20.51
